This is the latest recevied weather packets stored in our database for station/object R2AKT-13. If no packets are shown the sender has not sent any weather packets the latest 10 day(s).
| Time | Temp. | Humidity | Pressure | Rain* | Wind** | Luminosity | Snow |
|---|---|---|---|---|---|---|---|
| 1778280234 | 8.89° C | 65% | 997 hPa | - | 0.89 m/s, 110° | - | - |
| 1778279719 | 8.89° C | 64% | 996.8 hPa | - | 0.89 m/s, 87° | - | - |
| 1778279183 | 8.89° C | 64% | 996.8 hPa | - | 0.45 m/s, 191° | - | - |
| 1778278649 | 8.89° C | 64% | 996.8 hPa | - | 0.45 m/s, 89° | - | - |
| 1778278059 | 9.44° C | 65% | 996.8 hPa | - | 0.45 m/s, 89° | - | - |
| 1778277514 | 9.44° C | 65% | 996.8 hPa | - | 0.45 m/s, 132° | - | - |
| 1778277034 | 9.44° C | 63% | 996.8 hPa | - | 0.45 m/s, 95° | - | - |
| 1778276439 | 9.44° C | 65% | 996.9 hPa | - | 0.45 m/s, 192° | - | - |
| 1778275894 | 9.44° C | 64% | 996.8 hPa | - | 0 m/s | - | - |
| 1778275374 | 9.44° C | 65% | 996.8 hPa | - | 0.45 m/s, 160° | - | - |
| 1778274814 | 9.44° C | 66% | 996.8 hPa | - | 0.45 m/s, 82° | - | - |
| 1778274274 | 8.89° C | 69% | 996.8 hPa | - | 0 m/s | - | - |
| 1778273744 | 8.89° C | 71% | 996.8 hPa | - | 0 m/s | - | - |
| 1778273219 | 8.89° C | 71% | 996.7 hPa | - | 0.45 m/s, 155° | - | - |
| 1778272739 | 8.89° C | 71% | 996.7 hPa | - | 0.45 m/s, 132° | - | - |
| 1778272159 | 8.89° C | 71% | 996.5 hPa | - | 0.45 m/s, 222° | - | - |
| 1778271664 | 9.44° C | 70% | 996.4 hPa | - | 0.45 m/s, 152° | - | - |
| 1778271142 | 8.89° C | 73% | 996.4 hPa | - | 0.45 m/s, 230° | - | - |
| 1778270569 | 8.89° C | 74% | 996.5 hPa | - | 0.89 m/s, 242° | - | - |
| 1778270054 | 8.89° C | 74% | 996.4 hPa | - | 0.89 m/s, 238° | - | - |
| 1778269529 | 8.89° C | 73% | 996.3 hPa | - | 0.45 m/s, 183° | - | - |
| 1778268999 | 9.44° C | 71% | 996.3 hPa | - | 0.45 m/s, 167° | - | - |
| 1778268454 | 8.89° C | 72% | 996.1 hPa | - | 0.45 m/s, 212° | - | - |
| 1778267934 | 8.89° C | 72% | 996.1 hPa | - | 0.45 m/s, 172° | - | - |
| 1778267379 | 9.44° C | 72% | 996.1 hPa | - | 0 m/s | - | - |
* Rain since midnight (hover to see other rain measurements)
** Current wind speed in m/s (hover to see current wind gust speed)